createdAt,value
2019-05-18T14:10:31.452Z,22.90
2019-05-18T14:13:36.353Z,24.30
2019-05-18T14:16:41.235Z,26.63
2019-05-18T14:19:46.172Z,24.70
2019-05-18T14:22:50.850Z,26.73
2019-05-18T14:25:55.618Z,25.07
2019-05-18T14:29:00.412Z,25.03
2019-05-18T14:32:05.250Z,25.10
2019-05-18T14:35:09.961Z,29.17
2019-05-18T14:38:14.737Z,27.07
2019-05-18T14:41:19.425Z,29.30
2019-05-18T14:44:24.387Z,35.63
2019-05-18T14:47:29.306Z,35.83
2019-05-18T14:50:34.055Z,33.20
2019-05-18T14:53:38.865Z,28.90
2019-05-18T14:56:43.720Z,28.03
2019-05-18T14:59:48.616Z,27.50
2019-05-18T15:02:53.554Z,24.73
2019-05-18T15:05:58.429Z,17.97
2019-05-18T15:09:04.123Z,20.70
2019-05-18T15:12:08.666Z,21.00
2019-05-18T15:15:13.885Z,23.30
2019-05-18T15:18:20.424Z,25.50
2019-05-18T15:21:25.202Z,22.30
2019-05-18T15:24:30.033Z,21.10
2019-05-18T15:27:34.854Z,23.60
2019-05-18T15:30:39.478Z,22.60
2019-05-18T15:33:46.410Z,17.60
2019-05-18T15:36:52.587Z,23.17
2019-05-18T15:39:57.370Z,29.30
2019-05-18T15:43:02.101Z,35.47
2019-05-18T15:46:06.813Z,33.67
2019-05-18T15:49:11.568Z,27.97
2019-05-18T15:52:16.368Z,22.03
2019-05-18T15:55:21.295Z,17.40
2019-05-18T15:58:27.933Z,21.13
2019-05-18T16:01:32.828Z,20.40
2019-05-18T16:04:37.546Z,19.53
2019-05-18T16:07:42.278Z,13.03
2019-05-18T16:10:48.063Z,10.43
2019-05-18T16:13:52.846Z,9.70
2019-05-18T16:16:57.690Z,8.80
2019-05-18T16:20:02.879Z,7.00
2019-05-18T16:23:07.842Z,8.30
2019-05-18T16:26:21.213Z,6.80
2019-05-18T16:29:19.255Z,7.30
2019-05-18T16:32:24.075Z,6.80
2019-05-18T16:35:28.950Z,6.20
2019-05-18T16:38:33.729Z,6.80
2019-05-18T16:41:38.561Z,5.90
2019-05-18T16:44:43.390Z,6.20
2019-05-18T16:47:48.126Z,5.87
2019-05-18T16:50:52.967Z,6.87
2019-05-18T16:53:57.791Z,6.33
2019-05-18T16:57:02.715Z,6.00
2019-05-18T17:00:08.277Z,6.40
2019-05-18T17:03:13.327Z,6.70
2019-05-18T17:06:18.129Z,6.40
2019-05-18T17:09:23.001Z,6.93
2019-05-18T17:12:27.994Z,6.23
2019-05-18T17:15:32.842Z,6.60
2019-05-18T17:18:37.542Z,6.57
2019-05-18T17:21:42.195Z,6.57
2019-05-18T17:24:47.002Z,6.43
2019-05-18T17:27:51.854Z,7.00
2019-05-18T17:30:56.802Z,7.07
2019-05-18T17:34:01.450Z,7.67
2019-05-18T17:37:06.148Z,7.17
2019-05-18T17:40:10.599Z,11.17
2019-05-18T17:43:17.130Z,10.07
2019-05-18T17:46:21.946Z,8.80
2019-05-18T17:49:27.223Z,9.40
2019-05-18T17:52:32.117Z,9.27
2019-05-18T17:55:36.750Z,9.70
2019-05-18T17:58:41.619Z,8.73
2019-05-18T18:01:46.411Z,9.37
2019-05-18T18:04:54.108Z,8.97
2019-05-18T18:07:57.518Z,9.00
2019-05-18T18:11:02.352Z,9.23
2019-05-18T18:14:07.278Z,9.30
2019-05-18T18:17:11.985Z,9.07
2019-05-18T18:20:16.736Z,8.97
2019-05-18T18:23:21.475Z,9.10
2019-05-18T18:26:26.392Z,8.17
2019-05-18T18:29:31.226Z,9.50
2019-05-18T18:32:35.864Z,9.73
2019-05-18T18:35:40.675Z,9.57
2019-05-18T18:38:45.526Z,9.80
2019-05-18T18:41:50.263Z,10.30
2019-05-18T18:44:55.177Z,9.37
2019-05-18T18:48:00.123Z,8.90
2019-05-18T18:51:05.030Z,8.97
2019-05-18T18:54:12.549Z,8.70
2019-05-18T18:57:16.278Z,8.83
2019-05-18T19:00:20.860Z,8.70
2019-05-18T19:03:25.679Z,8.60
2019-05-18T19:06:30.540Z,9.70
2019-05-18T19:09:35.458Z,13.97
2019-05-18T19:12:40.289Z,14.40
2019-05-18T19:15:45.031Z,14.57
2019-05-18T19:18:49.848Z,14.90
2019-05-18T19:21:54.604Z,14.30
2019-05-18T19:24:59.405Z,14.63
2019-05-18T19:28:04.338Z,14.43
2019-05-18T19:31:09.091Z,15.20
2019-05-18T19:34:13.912Z,18.50
2019-05-18T19:37:18.374Z,16.60
2019-05-18T19:40:22.785Z,16.27
2019-05-18T19:43:27.578Z,17.57
2019-05-18T19:46:32.320Z,18.60
2019-05-18T19:49:37.044Z,18.70
2019-05-18T19:52:42.913Z,18.73
2019-05-18T19:55:47.592Z,17.93
2019-05-18T19:58:52.350Z,17.77
2019-05-18T20:01:56.954Z,18.10
2019-05-18T20:05:07.758Z,18.20
2019-05-18T20:08:08.053Z,17.40
2019-05-18T20:11:12.770Z,18.10
2019-05-18T20:14:17.613Z,17.27
2019-05-18T20:17:22.357Z,17.67
2019-05-18T20:20:27.113Z,18.10
2019-05-18T20:23:31.801Z,19.10
2019-05-18T20:26:36.788Z,17.70
2019-05-18T20:29:41.484Z,18.17
2019-05-18T20:32:46.113Z,19.77
2019-05-18T20:35:51.022Z,19.43
2019-05-18T20:38:55.786Z,21.90
2019-05-18T20:42:00.369Z,22.37
2019-05-18T20:45:05.211Z,24.43
2019-05-18T20:48:09.882Z,23.57
2019-05-18T20:51:14.654Z,23.10
